Time;durP1;ratioP1;P1;durP2;ratioP2;P2;SDS_P1;SDS_P2;PMS_P1;PMS_P2;Temp;Humidity;BMP_temperature;BMP_pressure;BME280_temperature;BME280_humidity;BME280_pressure;Samples;Min_cycle;Max_cycle;Signal;HPM_P1;HPM_P2
2022/07/08 00:01:37;;;;;;;8.77;1.13;;;19.70;66.00;;;;;;6217234;28;20058;-82
2022/07/08 00:04:39;;;;;;;4.85;0.90;;;19.70;66.00;;;;;;6226976;28;20050;-82
2022/07/08 00:07:41;;;;;;;4.20;0.90;;;19.60;65.80;;;;;;6225195;28;20042;-82
2022/07/08 00:10:43;;;;;;;5.38;1.13;;;19.50;66.00;;;;;;6220234;28;20507;-81
2022/07/08 00:13:44;;;;;;;3.63;0.70;;;19.40;66.40;;;;;;6213289;28;20053;-82
2022/07/08 00:16:48;;;;;;;8.15;1.00;;;19.40;66.40;;;;;;6214810;28;20050;-82
2022/07/08 00:19:50;;;;;;;7.18;1.00;;;19.40;66.30;;;;;;6218243;28;20042;-81
2022/07/08 00:22:51;;;;;;;8.20;1.63;;;19.40;66.30;;;;;;6220800;28;20046;-81
2022/07/08 00:25:53;;;;;;;8.75;2.15;;;19.30;66.10;;;;;;6219711;28;20412;-80
2022/07/08 00:28:55;;;;;;;4.28;1.30;;;19.30;65.80;;;;;;6218345;28;20042;-83
2022/07/08 00:31:58;;;;;;;3.60;1.35;;;19.30;65.70;;;;;;6219909;28;20056;-82
2022/07/08 00:35:00;;;;;;;4.10;1.10;;;19.30;65.80;;;;;;6228370;28;20042;-83
2022/07/08 00:38:01;;;;;;;6.93;1.35;;;19.10;66.20;;;;;;6221332;28;20050;-82
2022/07/08 00:41:03;;;;;;;6.78;1.38;;;19.00;66.80;;;;;;6223552;28;20050;-81
2022/07/08 00:44:05;;;;;;;5.68;0.95;;;18.90;67.40;;;;;;6228985;28;20046;-82
2022/07/08 00:47:08;;;;;;;6.22;1.52;;;18.70;67.90;;;;;;6219809;28;20042;-82
2022/07/08 00:50:10;;;;;;;8.57;3.30;;;18.60;68.90;;;;;;6235432;28;20052;-82
2022/07/08 00:53:12;;;;;;;7.40;1.40;;;18.50;68.80;;;;;;6224041;28;20081;-83
2022/07/08 00:56:14;;;;;;;5.88;1.60;;;18.40;69.30;;;;;;6223650;28;20062;-82
2022/07/08 00:59:16;;;;;;;7.63;1.08;;;18.20;69.80;;;;;;6222253;28;20114;-83
2022/07/08 01:02:19;;;;;;;7.45;1.45;;;18.10;70.60;;;;;;6222459;28;20050;-82
2022/07/08 01:05:21;;;;;;;5.20;1.80;;;17.90;71.20;;;;;;6224803;28;20060;-82
2022/07/08 01:08:24;;;;;;;3.80;1.45;;;17.80;71.40;;;;;;6223588;28;20048;-82
2022/07/08 01:11:26;;;;;;;17.15;1.50;;;17.70;72.00;;;;;;6225119;28;20050;-81
2022/07/08 01:14:29;;;;;;;5.75;2.65;;;17.60;72.30;;;;;;6222990;28;20057;-81
2022/07/08 01:17:41;;;;;;;9.02;1.40;;;17.50;72.90;;;;;;6222773;28;20065;-82
2022/07/08 01:20:47;;;;;;;8.55;1.73;;;17.50;73.50;;;;;;6226335;28;20152;-80
2022/07/08 01:23:49;;;;;;;5.53;1.27;;;17.30;73.90;;;;;;6219663;28;20046;-81
2022/07/08 01:26:51;;;;;;;5.35;1.60;;;17.20;74.20;;;;;;6227580;28;20060;-83
2022/07/08 01:29:53;;;;;;;5.03;1.35;;;17.20;74.40;;;;;;6218172;28;20049;-81
2022/07/08 01:32:54;;;;;;;5.50;1.67;;;17.10;74.80;;;;;;6215929;28;20069;-82
2022/07/08 01:35:57;;;;;;;9.35;1.83;;;17.00;75.10;;;;;;6218965;28;20110;-83
2022/07/08 01:38:59;;;;;;;6.78;2.33;;;17.00;75.40;;;;;;6225044;28;20046;-80
2022/07/08 01:42:01;;;;;;;12.82;1.63;;;16.90;76.10;;;;;;6219881;28;20058;-82
2022/07/08 01:45:03;;;;;;;5.80;1.50;;;16.80;76.50;;;;;;6228021;28;20049;-82
2022/07/08 01:48:06;;;;;;;3.85;1.08;;;16.80;76.70;;;;;;6222723;28;20100;-81
2022/07/08 01:51:09;;;;;;;7.28;1.77;;;16.70;77.00;;;;;;6215689;28;20117;-81
2022/07/08 01:54:11;;;;;;;7.00;1.38;;;16.70;77.20;;;;;;6223912;28;20046;-82
2022/07/08 01:57:16;;;;;;;6.07;1.80;;;16.60;77.80;;;;;;6220164;28;20064;-83
2022/07/08 02:00:17;;;;;;;6.25;1.65;;;16.50;78.40;;;;;;6221098;28;20088;-82
2022/07/08 02:03:19;;;;;;;9.65;1.50;;;16.50;79.00;;;;;;6225396;28;20064;-83
2022/07/08 02:06:22;;;;;;;3.40;1.20;;;16.40;79.40;;;;;;6222257;28;20050;-83
2022/07/08 02:09:24;;;;;;;4.93;1.55;;;16.30;80.10;;;;;;6221672;28;20050;-82
2022/07/08 02:12:26;;;;;;;4.10;1.30;;;16.20;80.50;;;;;;6229023;28;20113;-82
2022/07/08 02:15:28;;;;;;;2.72;1.55;;;16.10;81.40;;;;;;6219254;28;20045;-82
2022/07/08 02:18:29;;;;;;;12.88;2.22;;;15.90;82.60;;;;;;6223523;28;20056;-82
2022/07/08 02:21:32;;;;;;;3.47;1.48;;;15.80;83.40;;;;;;6216510;28;20046;-82
2022/07/08 02:24:34;;;;;;;3.15;1.55;;;15.60;84.40;;;;;;6220094;28;20171;-82
2022/07/08 02:27:36;;;;;;;22.30;2.78;;;15.50;85.00;;;;;;6222663;28;20114;-81
2022/07/08 02:30:38;;;;;;;7.65;2.35;;;15.30;85.60;;;;;;6226807;28;20060;-83
2022/07/08 02:33:40;;;;;;;5.00;1.80;;;15.10;86.50;;;;;;6241612;28;20141;-81
2022/07/08 02:36:43;;;;;;;6.78;1.77;;;15.00;87.30;;;;;;6217674;28;20060;-81
2022/07/08 02:39:44;;;;;;;5.88;2.17;;;14.90;88.20;;;;;;6215392;28;20064;-81
2022/07/08 02:42:46;;;;;;;10.30;2.35;;;14.90;88.80;;;;;;6228102;28;20896;-80
2022/07/08 02:45:48;;;;;;;7.55;2.42;;;14.70;89.20;;;;;;6220782;28;20087;-82
2022/07/08 02:48:49;;;;;;;8.07;2.15;;;14.70;89.70;;;;;;6222515;28;20050;-81
2022/07/08 02:51:52;;;;;;;5.85;1.85;;;14.60;90.10;;;;;;6223322;28;20060;-82
2022/07/08 02:54:54;;;;;;;5.88;2.10;;;14.60;90.60;;;;;;6228132;28;20046;-81
2022/07/08 02:57:56;;;;;;;6.72;1.63;;;14.50;90.80;;;;;;6220822;28;20054;-82
2022/07/08 03:00:58;;;;;;;8.77;2.03;;;14.40;91.00;;;;;;6227180;28;20050;-81
2022/07/08 03:04:00;;;;;;;9.70;2.40;;;14.30;91.00;;;;;;6213150;28;20109;-81
2022/07/08 03:07:03;;;;;;;6.15;1.98;;;14.20;91.40;;;;;;6223908;28;20050;-81
2022/07/08 03:10:06;;;;;;;7.65;1.80;;;14.10;91.60;;;;;;6216516;28;20136;-80
2022/07/08 03:13:08;;;;;;;4.90;1.98;;;14.10;92.00;;;;;;6226485;28;20068;-81
2022/07/08 03:16:09;;;;;;;6.07;2.40;;;14.00;92.00;;;;;;6214836;28;20054;-81
2022/07/08 03:19:12;;;;;;;3.35;1.77;;;14.00;92.10;;;;;;6222223;28;20149;-82
2022/07/08 03:22:15;;;;;;;7.18;2.30;;;13.90;92.30;;;;;;6214652;28;20062;-82
2022/07/08 03:25:17;;;;;;;10.13;3.15;;;13.90;92.60;;;;;;6217111;28;20046;-81
2022/07/08 03:28:18;;;;;;;8.27;2.05;;;13.90;92.80;;;;;;6219319;28;20060;-81
2022/07/08 03:31:20;;;;;;;6.15;2.22;;;13.80;93.40;;;;;;6217623;28;20061;-81
2022/07/08 03:34:22;;;;;;;11.05;2.33;;;13.80;93.20;;;;;;6217925;28;20157;-81
2022/07/08 03:37:26;;;;;;;13.25;2.65;;;13.80;93.50;;;;;;6211986;28;20113;-82
2022/07/08 03:43:47;;;;;;;8.52;2.55;;;13.70;93.80;;;;;;6217480;28;20053;-82
2022/07/08 03:46:49;;;;;;;4.60;2.00;;;13.60;93.70;;;;;;6215019;28;20058;-82
2022/07/08 03:49:50;;;;;;;9.68;2.75;;;13.70;93.80;;;;;;6210629;28;20428;-81
2022/07/08 03:52:54;;;;;;;6.00;2.13;;;13.60;93.90;;;;;;6208225;28;20058;-82
2022/07/08 03:55:56;;;;;;;6.95;2.17;;;13.70;94.10;;;;;;6208694;28;20109;-82
2022/07/08 03:58:58;;;;;;;3.97;2.30;;;13.70;94.20;;;;;;6211163;28;20042;-82
2022/07/08 04:02:00;;;;;;;3.40;1.98;;;13.70;94.40;;;;;;6212382;28;20047;-81
2022/07/08 04:05:02;;;;;;;13.18;2.15;;;13.80;94.40;;;;;;6205828;28;20053;-82
2022/07/08 04:08:05;;;;;;;4.22;2.17;;;13.90;94.60;;;;;;6211416;28;20500;-81
2022/07/08 04:11:07;;;;;;;4.78;2.00;;;14.00;94.50;;;;;;6215048;28;20047;-83
2022/07/08 04:14:08;;;;;;;6.30;2.05;;;14.20;94.30;;;;;;6222664;28;20049;-82
2022/07/08 04:17:16;;;;;;;8.77;2.63;;;14.50;94.00;;;;;;6217465;28;20050;-82
2022/07/08 04:20:18;;;;;;;4.18;2.00;;;15.00;93.40;;;;;;6208287;28;20199;-82
2022/07/08 04:23:21;;;;;;;5.90;2.20;;;16.20;91.40;;;;;;6208774;28;20050;-83
2022/07/08 04:26:28;;;;;;;8.80;1.95;;;17.20;88.40;;;;;;6214234;28;20053;-83
2022/07/08 04:29:29;;;;;;;4.55;1.77;;;17.30;87.00;;;;;;6215524;28;20050;-83
2022/07/08 04:32:31;;;;;;;5.10;1.80;;;17.20;86.90;;;;;;6218693;28;20177;-82
2022/07/08 04:35:33;;;;;;;6.85;2.45;;;17.00;87.20;;;;;;6216880;28;20420;-82
2022/07/08 04:38:36;;;;;;;3.58;1.70;;;16.80;87.80;;;;;;6218444;28;20050;-83
2022/07/08 04:41:38;;;;;;;5.50;1.92;;;16.80;87.80;;;;;;6217437;28;20043;-83
2022/07/08 04:44:39;;;;;;;4.50;1.85;;;17.10;87.80;;;;;;6222204;28;20153;-84
2022/07/08 04:47:41;;;;;;;8.13;1.88;;;18.60;84.10;;;;;;6217770;28;20640;-83
2022/07/08 04:50:43;;;;;;;8.23;1.88;;;20.70;77.30;;;;;;6220306;28;20054;-83
2022/07/08 04:53:46;;;;;;;3.90;1.15;;;22.70;70.00;;;;;;6215188;28;20087;-84
2022/07/08 04:56:48;;;;;;;4.25;1.73;;;24.20;63.60;;;;;;6209336;28;20435;-83
2022/07/08 04:59:49;;;;;;;5.90;1.83;;;25.60;58.60;;;;;;6218590;28;20056;-84
2022/07/08 05:02:51;;;;;;;3.30;1.27;;;26.60;55.00;;;;;;6208418;28;20134;-84
2022/07/08 05:05:53;;;;;;;4.18;1.50;;;27.40;52.10;;;;;;6213586;28;20133;-82
2022/07/08 05:08:56;;;;;;;8.23;1.70;;;28.20;50.00;;;;;;6216097;28;20500;-81
2022/07/08 05:11:57;;;;;;;4.68;1.20;;;29.00;47.80;;;;;;6212220;28;20051;-84
2022/07/08 05:14:59;;;;;;;4.78;1.23;;;29.70;46.00;;;;;;6215381;28;20499;-82
2022/07/08 05:18:01;;;;;;;3.05;0.98;;;30.40;44.40;;;;;;6213996;28;20050;-81
2022/07/08 05:21:03;;;;;;;8.23;2.40;;;31.10;43.10;;;;;;6217132;28;20034;-84
2022/07/08 05:24:07;;;;;;;7.13;1.40;;;31.70;42.50;;;;;;6209946;28;20086;-84
2022/07/08 05:27:09;;;;;;;3.75;1.23;;;32.40;40.70;;;;;;6211028;28;20042;-82
2022/07/08 05:30:11;;;;;;;8.77;1.38;;;33.00;39.10;;;;;;6208182;28;20057;-82
2022/07/08 05:33:13;;;;;;;5.43;1.10;;;33.60;37.60;;;;;;6216670;28;20141;-85
2022/07/08 05:36:15;;;;;;;5.53;1.15;;;34.10;36.60;;;;;;6212214;28;20054;-81
2022/07/08 05:39:18;;;;;;;5.60;0.77;;;34.60;35.80;;;;;;6211355;28;20049;-85
2022/07/08 05:42:20;;;;;;;3.78;0.85;;;35.00;34.40;;;;;;6219506;28;20057;-83
2022/07/08 05:45:22;;;;;;;5.35;1.73;;;35.80;33.40;;;;;;6211362;28;20530;-83
2022/07/08 05:48:24;;;;;;;5.30;1.05;;;36.80;32.10;;;;;;6217711;28;20050;-82
2022/07/08 05:51:26;;;;;;;8.48;1.10;;;37.80;31.50;;;;;;6225020;28;20053;-80
2022/07/08 05:54:29;;;;;;;5.28;0.90;;;38.80;30.00;;;;;;6214391;28;20042;-81
2022/07/08 05:57:31;;;;;;;5.97;0.93;;;39.30;29.30;;;;;;6212811;28;20052;-81
2022/07/08 06:00:33;;;;;;;7.75;1.30;;;39.50;28.90;;;;;;6212627;28;20042;-81
2022/07/08 06:03:34;;;;;;;4.03;0.98;;;40.00;28.60;;;;;;6224101;28;20069;-81
2022/07/08 06:06:36;;;;;;;5.43;1.30;;;40.60;28.20;;;;;;6211987;28;20046;-82
2022/07/08 06:09:39;;;;;;;5.43;1.33;;;41.00;27.80;;;;;;6216652;28;20053;-83
2022/07/08 06:12:41;;;;;;;4.78;0.85;;;41.40;27.40;;;;;;6218492;28;20429;-81
2022/07/08 06:15:43;;;;;;;4.47;0.80;;;41.50;27.30;;;;;;6208148;28;20058;-82
2022/07/08 06:18:44;;;;;;;6.20;1.55;;;41.70;27.10;;;;;;6218461;28;20061;-83
2022/07/08 06:21:46;;;;;;;4.25;1.00;;;42.10;26.90;;;;;;6218470;28;20060;-85
2022/07/08 06:24:50;;;;;;;9.45;1.17;;;42.40;26.70;;;;;;6213487;28;20095;-83
2022/07/08 06:27:52;;;;;;;6.88;1.25;;;42.80;26.60;;;;;;6227949;28;20046;-82
2022/07/08 06:30:54;;;;;;;5.53;0.95;;;42.70;26.30;;;;;;6222708;28;20061;-83
2022/07/08 06:33:57;;;;;;;5.07;0.88;;;42.50;26.30;;;;;;6226064;28;20056;-83
2022/07/08 06:36:59;;;;;;;6.40;0.93;;;42.20;26.30;;;;;;6210242;28;20050;-83
2022/07/08 06:40:02;;;;;;;4.57;1.00;;;41.40;26.60;;;;;;6212370;28;20405;-83
2022/07/08 06:43:04;;;;;;;4.57;0.90;;;40.80;27.00;;;;;;6213640;28;20054;-82
2022/07/08 06:46:06;;;;;;;4.60;0.90;;;40.20;27.10;;;;;;6203309;28;20042;-82
2022/07/08 06:49:08;;;;;;;7.72;1.38;;;40.20;27.30;;;;;;6216840;28;20046;-83
2022/07/08 06:52:10;;;;;;;6.22;1.17;;;39.70;27.30;;;;;;6217368;28;20046;-83
2022/07/08 06:55:13;;;;;;;2.50;0.50;;;39.90;27.50;;;;;;6211406;28;20148;-81
2022/07/08 06:58:14;;;;;;;3.40;0.60;;;40.20;27.50;;;;;;6208176;28;20062;-81
2022/07/08 07:01:16;;;;;;;5.47;1.00;;;40.60;26.90;;;;;;6212681;28;20060;-83
2022/07/08 07:04:18;;;;;;;2.10;0.40;;;40.80;26.80;;;;;;6214505;28;20060;-82
2022/07/08 07:07:20;;;;;;;4.40;0.40;;;40.60;26.60;;;;;;6207400;28;20046;-83
2022/07/08 07:10:23;;;;;;;3.55;1.10;;;40.30;26.80;;;;;;6213705;28;20060;-82
2022/07/08 07:13:24;;;;;;;5.90;0.70;;;38.50;27.00;;;;;;6216740;28;20056;-83
2022/07/08 07:16:26;;;;;;;6.82;1.08;;;34.60;29.20;;;;;;6212436;28;20125;-81
2022/07/08 07:19:28;;;;;;;4.35;1.00;;;31.70;32.00;;;;;;6211845;28;20436;-82
2022/07/08 07:22:30;;;;;;;2.75;0.70;;;30.90;33.10;;;;;;6213360;28;20132;-82
2022/07/08 07:25:33;;;;;;;3.35;0.63;;;30.60;34.30;;;;;;6204026;28;20050;-84
2022/07/08 07:28:36;;;;;;;5.82;0.85;;;32.90;32.20;;;;;;6188025;28;20546;-84
2022/07/08 07:31:37;;;;;;;7.35;1.17;;;35.20;30.00;;;;;;6202521;28;20468;-85
2022/07/08 07:34:39;;;;;;;3.35;0.47;;;34.40;29.90;;;;;;6205367;28;20480;-82
2022/07/08 07:37:41;;;;;;;4.40;1.20;;;31.60;32.00;;;;;;6211861;28;20060;-85
2022/07/08 07:40:44;;;;;;;4.00;0.75;;;29.80;34.50;;;;;;6214478;28;20081;-85
2022/07/08 07:43:46;;;;;;;6.38;0.63;;;28.80;35.80;;;;;;6216829;28;20057;-85
2022/07/08 07:46:50;;;;;;;7.93;1.08;;;28.10;36.60;;;;;;6211989;28;20049;-87
2022/07/08 07:49:51;;;;;;;4.45;0.50;;;28.00;37.20;;;;;;6213321;28;20057;-84
2022/07/08 07:52:53;;;;;;;8.40;1.25;;;28.90;36.10;;;;;;6215601;28;20069;-84
2022/07/08 07:55:57;;;;;;;3.65;0.70;;;28.60;36.20;;;;;;6213610;28;20066;-85
2022/07/08 07:59:00;;;;;;;7.10;1.02;;;27.60;37.20;;;;;;6216764;28;20042;-87
2022/07/08 08:02:28;;;;;;;3.88;0.47;;;26.60;39.30;;;;;;6215293;28;20114;-86
2022/07/08 08:05:30;;;;;;;5.45;2.20;;;26.30;39.30;;;;;;6213554;28;20043;-85
2022/07/08 08:08:32;;;;;;;3.90;0.65;;;25.80;39.90;;;;;;6221072;28;20105;-84
2022/07/08 08:11:50;;;;;;;6.80;1.00;;;25.10;40.90;;;;;;6213491;28;20146;-85
2022/07/08 08:14:51;;;;;;;1.27;0.65;;;24.70;41.50;;;;;;6215613;28;20339;-84
2022/07/08 08:17:53;;;;;;;2.90;0.73;;;24.40;42.20;;;;;;6214596;28;20189;-84
2022/07/08 08:20:55;;;;;;;6.85;0.63;;;24.30;42.90;;;;;;6201067;28;20062;-83
2022/07/08 08:23:57;;;;;;;12.52;1.10;;;24.30;42.80;;;;;;6213344;28;20109;-85
2022/07/08 08:27:00;;;;;;;3.40;1.27;;;24.30;42.90;;;;;;6222963;28;20038;-85
2022/07/08 08:30:02;;;;;;;3.65;0.82;;;24.20;42.80;;;;;;6219214;28;20077;-84
2022/07/08 08:33:03;;;;;;;5.53;0.80;;;24.10;43.00;;;;;;6215283;28;20042;-84
2022/07/08 08:36:13;;;;;;;7.25;0.85;;;24.10;42.90;;;;;;6212745;28;20411;-85
2022/07/08 08:39:15;;;;;;;4.20;1.10;;;24.00;43.80;;;;;;6214388;28;20054;-84
2022/07/08 08:42:19;;;;;;;6.32;1.25;;;23.60;43.90;;;;;;6216088;28;20122;-83
2022/07/08 08:45:21;;;;;;;5.30;0.45;;;23.30;45.00;;;;;;6215775;28;20165;-84
2022/07/08 08:48:25;;;;;;;3.92;0.60;;;23.30;44.80;;;;;;6218136;28;20157;-82
2022/07/08 08:51:31;;;;;;;3.58;0.70;;;23.30;44.60;;;;;;6220722;28;20113;-83
2022/07/08 08:54:36;;;;;;;2.90;0.52;;;23.20;44.60;;;;;;6211605;28;20064;-84
2022/07/08 08:57:39;;;;;;;6.80;0.63;;;23.50;44.90;;;;;;6215504;28;20041;-81
2022/07/08 09:00:43;;;;;;;3.25;0.50;;;23.70;44.50;;;;;;6212987;28;20052;-85
2022/07/08 09:03:45;;;;;;;7.00;0.70;;;23.90;44.70;;;;;;6212237;28;20053;-85
2022/07/08 09:06:47;;;;;;;7.97;0.88;;;24.20;44.30;;;;;;6211913;28;20058;-85
2022/07/08 09:09:49;;;;;;;11.13;0.57;;;24.50;43.00;;;;;;6213587;28;20056;-84
2022/07/08 09:13:03;;;;;;;6.40;0.90;;;24.70;43.50;;;;;;6213239;28;20048;-84
2022/07/08 09:16:05;;;;;;;7.28;0.88;;;25.10;42.10;;;;;;6209387;28;20050;-85
2022/07/08 09:19:13;;;;;;;4.05;0.95;;;25.40;42.30;;;;;;6212138;28;20070;-86
2022/07/08 09:22:15;;;;;;;7.07;0.77;;;25.60;41.40;;;;;;6215745;28;20053;-84
2022/07/08 09:25:17;;;;;;;2.10;0.50;;;25.80;40.50;;;;;;6209790;28;20049;-85
2022/07/08 09:28:30;;;;;;;7.95;0.88;;;25.70;40.50;;;;;;6208933;28;20089;-83
2022/07/08 09:31:35;;;;;;;6.47;0.90;;;25.60;40.70;;;;;;6212116;28;20516;-84
2022/07/08 09:34:37;;;;;;;3.70;0.70;;;26.00;41.10;;;;;;6215475;28;20136;-86
2022/07/08 09:37:39;;;;;;;4.10;0.60;;;26.40;40.60;;;;;;6210552;28;20137;-85
2022/07/08 09:40:41;;;;;;;4.72;0.90;;;26.70;40.20;;;;;;6209191;28;20472;-86
2022/07/08 09:43:46;;;;;;;3.33;0.68;;;26.70;39.50;;;;;;6209136;28;20073;-85
2022/07/08 09:46:48;;;;;;;8.43;1.60;;;26.60;39.70;;;;;;6209968;28;20047;-84
2022/07/08 09:49:50;;;;;;;8.63;0.77;;;26.70;39.50;;;;;;6211914;28;20050;-84
2022/07/08 09:52:54;;;;;;;4.55;0.60;;;26.70;39.30;;;;;;6205913;28;20046;-84
2022/07/08 09:55:58;;;;;;;1.98;0.57;;;26.80;40.00;;;;;;6210097;28;20046;-84
2022/07/08 09:59:02;;;;;;;5.88;0.88;;;26.80;39.60;;;;;;6221961;28;20079;-85
2022/07/08 10:02:06;;;;;;;3.13;0.60;;;26.90;39.50;;;;;;6211268;28;20118;-85
2022/07/08 10:12:15;;;;;;;3.83;0.65;;;27.20;39.60;;;;;;6188218;28;20393;-85
2022/07/08 10:15:24;;;;;;;1.77;0.85;;;28.10;38.60;;;;;;6189110;28;20097;-85
2022/07/08 10:18:39;;;;;;;3.63;0.65;;;28.90;37.80;;;;;;6200977;28;20049;-83
2022/07/08 10:21:44;;;;;;;3.38;0.73;;;29.80;36.40;;;;;;6202703;28;20050;-84
2022/07/08 10:24:47;;;;;;;2.95;0.60;;;30.00;35.80;;;;;;6210754;28;20057;-84
2022/07/08 10:27:48;;;;;;;2.10;0.47;;;29.80;35.60;;;;;;6205413;28;20113;-84
2022/07/08 10:30:53;;;;;;;3.20;0.32;;;29.50;35.90;;;;;;6210783;28;20741;-83
2022/07/08 10:34:00;;;;;;;4.70;0.70;;;29.00;35.70;;;;;;6209925;28;20053;-85
2022/07/08 10:37:04;;;;;;;3.80;0.52;;;28.70;36.10;;;;;;6226375;28;20045;-85
2022/07/08 10:40:07;;;;;;;2.80;0.55;;;28.60;36.60;;;;;;6212247;28;20137;-83
2022/07/08 10:47:05;;;;;;;3.97;0.90;;;28.50;36.90;;;;;;6208593;28;20066;-84
2022/07/08 10:50:09;;;;;;;7.68;0.90;;;28.50;37.10;;;;;;6213070;28;20042;-85
2022/07/08 10:53:11;;;;;;;8.35;0.50;;;28.60;37.20;;;;;;6222579;28;20407;-85
2022/07/08 10:56:13;;;;;;;4.72;0.80;;;28.70;36.70;;;;;;6385328;23;20056;-85
2022/07/08 10:59:19;;;;;;;14.73;5.20;;;28.70;36.30;;;;;;6233474;28;20068;-85
2022/07/08 11:02:27;;;;;;;7.20;1.58;;;28.60;37.10;;;;;;6247496;28;20141;-86
2022/07/08 11:05:41;;;;;;;3.63;0.60;;;28.80;36.80;;;;;;6237641;28;20042;-86
2022/07/08 11:09:01;;;;;;;4.95;0.50;;;29.00;36.30;;;;;;6235384;28;20049;-85
2022/07/08 11:12:05;;;;;;;4.40;0.70;;;29.00;35.80;;;;;;6234078;28;20069;-84
2022/07/08 11:15:11;;;;;;;7.75;1.40;;;29.20;36.80;;;;;;6245550;23;20426;-80
2022/07/08 11:18:21;;;;;;;1.48;0.50;;;29.40;35.80;;;;;;6160840;28;20051;-82
2022/07/08 11:21:23;;;;;;;7.85;0.73;;;29.60;35.10;;;;;;6149251;28;20065;-78
2022/07/08 11:24:25;;;;;;;5.57;0.68;;;29.80;35.20;;;;;;6148888;28;20436;-81
2022/07/08 11:27:28;;;;;;;2.83;0.50;;;29.90;35.00;;;;;;6146703;28;20413;-79
2022/07/08 11:30:30;;;;;;;6.30;0.75;;;30.10;34.90;;;;;;6148281;28;20055;-79
2022/07/08 11:33:43;;;;;;;2.78;0.38;;;30.10;34.30;;;;;;6154348;28;20409;-79
2022/07/08 11:36:54;;;;;;;4.00;0.63;;;30.10;34.50;;;;;;6155719;28;20061;-78
2022/07/08 11:39:56;;;;;;;2.67;0.57;;;30.20;34.40;;;;;;6153023;28;20051;-78
2022/07/08 11:42:58;;;;;;;4.68;0.60;;;30.40;34.40;;;;;;6153293;28;20051;-80
2022/07/08 11:46:04;;;;;;;2.33;0.40;;;30.60;33.70;;;;;;6156510;28;20055;-79
2022/07/08 11:49:07;;;;;;;3.50;0.77;;;30.70;33.30;;;;;;6155266;28;20425;-80
2022/07/08 11:52:10;;;;;;;1.70;0.40;;;31.00;33.20;;;;;;6157141;28;20051;-80
2022/07/08 11:55:12;;;;;;;2.33;0.55;;;31.10;33.40;;;;;;6160444;28;20062;-80
2022/07/08 11:58:22;;;;;;;2.92;0.50;;;31.00;33.10;;;;;;6159077;28;20047;-81
2022/07/08 12:01:23;;;;;;;4.05;0.43;;;30.60;33.90;;;;;;6159293;28;20424;-79
2022/07/08 12:04:27;;;;;;;4.32;0.80;;;30.40;33.80;;;;;;6142144;28;20054;-79
2022/07/08 12:07:29;;;;;;;3.40;0.65;;;30.30;33.80;;;;;;6155342;28;20054;-81
2022/07/08 12:10:32;;;;;;;2.35;0.40;;;30.30;33.10;;;;;;6157099;28;20051;-79
2022/07/08 12:13:41;;;;;;;2.50;0.38;;;30.00;32.60;;;;;;6155365;28;20051;-80
2022/07/08 12:16:46;;;;;;;4.78;0.98;;;30.00;32.80;;;;;;6156142;28;20150;-80
2022/07/08 12:19:52;;;;;;;6.43;0.75;;;30.30;32.30;;;;;;6156836;28;20058;-80
2022/07/08 12:22:57;;;;;;;5.32;0.85;;;30.60;33.10;;;;;;6157749;28;20047;-80
2022/07/08 12:25:59;;;;;;;2.90;0.93;;;30.60;33.20;;;;;;6158192;28;20048;-80
2022/07/08 12:29:12;;;;;;;2.50;0.82;;;30.60;33.60;;;;;;6157777;28;20047;-80
2022/07/08 12:32:14;;;;;;;2.13;0.50;;;31.00;33.80;;;;;;6157565;28;20059;-81
2022/07/08 12:35:17;;;;;;;3.92;0.73;;;31.40;32.70;;;;;;6157036;28;20055;-80
2022/07/08 12:38:23;;;;;;;9.73;0.80;;;31.10;32.30;;;;;;6156007;28;20047;-79
2022/07/08 12:41:25;;;;;;;3.07;0.87;;;30.60;33.30;;;;;;6153386;28;20512;-80
2022/07/08 12:44:36;;;;;;;5.10;0.57;;;30.70;33.50;;;;;;6152817;28;20302;-80
2022/07/08 12:47:38;;;;;;;2.90;0.70;;;31.10;33.80;;;;;;6152169;28;20075;-80
2022/07/08 12:50:42;;;;;;;2.92;0.70;;;31.50;32.30;;;;;;6154559;28;20523;-80
2022/07/08 12:53:44;;;;;;;6.03;0.60;;;31.20;31.20;;;;;;6155547;28;20061;-80
2022/07/08 12:56:47;;;;;;;3.97;0.40;;;30.60;32.30;;;;;;6153378;28;20386;-80
2022/07/08 12:59:48;;;;;;;7.60;0.38;;;30.30;33.20;;;;;;6154972;28;20125;-80
2022/07/08 13:02:51;;;;;;;5.43;0.57;;;30.10;33.30;;;;;;6154361;28;20169;-80
2022/07/08 13:05:54;;;;;;;9.13;0.57;;;30.10;34.00;;;;;;6154850;28;20039;-80
2022/07/08 13:08:56;;;;;;;4.05;0.30;;;30.40;33.20;;;;;;6153389;28;20045;-80
2022/07/08 13:11:58;;;;;;;2.92;0.50;;;30.80;32.90;;;;;;6150275;28;20047;-80
2022/07/08 13:14:59;;;;;;;3.65;0.60;;;31.30;33.20;;;;;;6153615;28;20047;-80
2022/07/08 13:18:01;;;;;;;2.05;0.30;;;31.80;32.70;;;;;;6152861;28;20058;-80
2022/07/08 13:21:05;;;;;;;4.78;0.73;;;32.30;31.70;;;;;;6153381;28;20424;-80
2022/07/08 13:24:07;;;;;;;3.70;0.55;;;32.60;31.70;;;;;;6152167;28;20047;-80
2022/07/08 13:27:09;;;;;;;8.10;0.88;;;32.80;31.70;;;;;;6152901;28;20047;-80
2022/07/08 13:30:11;;;;;;;2.33;0.40;;;33.10;31.50;;;;;;6148880;28;20063;-81
2022/07/08 13:33:13;;;;;;;6.22;0.60;;;33.20;30.90;;;;;;6151321;28;20130;-81
2022/07/08 13:36:16;;;;;;;3.80;1.25;;;33.20;30.90;;;;;;6152327;28;20052;-80
2022/07/08 13:39:18;;;;;;;2.72;0.40;;;33.40;31.30;;;;;;6151901;28;20468;-81
2022/07/08 13:42:20;;;;;;;3.53;0.60;;;33.40;30.50;;;;;;6153211;28;20057;-80
2022/07/08 13:45:22;;;;;;;3.80;0.50;;;33.50;30.10;;;;;;6152510;28;20043;-80
2022/07/08 13:48:23;;;;;;;3.42;0.88;;;33.50;30.00;;;;;;6153388;28;20051;-80
2022/07/08 13:51:27;;;;;;;2.65;0.40;;;33.70;29.90;;;;;;6154100;28;20047;-81
2022/07/08 13:54:28;;;;;;;4.15;0.50;;;33.70;29.90;;;;;;6151404;28;20139;-81
2022/07/08 13:57:30;;;;;;;2.90;0.70;;;33.70;29.70;;;;;;6152338;28;20058;-80
2022/07/08 14:00:32;;;;;;;5.28;0.50;;;33.40;30.10;;;;;;6151515;28;20058;-80
2022/07/08 14:03:34;;;;;;;2.13;0.35;;;33.20;30.60;;;;;;6150792;28;20047;-80
2022/07/08 14:06:37;;;;;;;5.45;0.50;;;33.40;30.30;;;;;;6153415;28;20422;-80
2022/07/08 14:09:38;;;;;;;1.30;0.20;;;33.60;30.30;;;;;;6151881;28;20417;-81
2022/07/08 14:12:40;;;;;;;6.90;1.30;;;33.60;30.20;;;;;;6151850;28;20102;-80
2022/07/08 14:15:42;;;;;;;1.77;0.43;;;33.40;30.30;;;;;;6154537;28;20051;-79
2022/07/08 14:18:44;;;;;;;5.32;0.80;;;33.10;30.50;;;;;;6145758;28;20081;-80
2022/07/08 14:21:48;;;;;;;1.65;0.43;;;33.00;30.50;;;;;;6156184;28;20505;-82
2022/07/08 14:24:49;;;;;;;3.00;0.70;;;33.20;30.30;;;;;;6155914;28;20121;-81
2022/07/08 14:27:51;;;;;;;0.90;0.30;;;33.40;30.20;;;;;;6153267;28;20050;-80
2022/07/08 14:30:53;;;;;;;5.32;0.45;;;33.50;30.10;;;;;;6153895;28;20055;-80
2022/07/08 14:33:55;;;;;;;5.45;0.40;;;32.90;30.40;;;;;;6154662;28;20058;-79
2022/07/08 14:36:59;;;;;;;6.10;0.73;;;31.80;30.90;;;;;;6154244;28;20047;-80
2022/07/08 14:40:01;;;;;;;5.38;0.60;;;31.10;31.60;;;;;;6156252;28;20039;-81
2022/07/08 14:43:03;;;;;;;3.25;0.50;;;31.20;32.10;;;;;;6154622;28;20066;-80
2022/07/08 14:46:05;;;;;;;2.03;0.93;;;31.70;32.00;;;;;;6155943;28;20047;-82
2022/07/08 14:49:07;;;;;;;1.17;0.45;;;32.20;31.70;;;;;;6155879;28;20047;-82
2022/07/08 14:52:11;;;;;;;1.73;0.30;;;32.40;31.80;;;;;;6157932;28;20054;-81
2022/07/08 14:55:13;;;;;;;3.17;0.55;;;32.60;31.40;;;;;;6154253;28;20051;-81
2022/07/08 14:58:15;;;;;;;2.25;0.75;;;32.90;31.10;;;;;;6155267;28;20565;-82
2022/07/08 15:01:16;;;;;;;1.58;0.40;;;33.10;30.90;;;;;;6153327;28;20046;-81
2022/07/08 15:04:18;;;;;;;2.33;0.40;;;33.00;30.50;;;;;;6153780;28;20579;-82
2022/07/08 15:07:21;;;;;;;2.20;0.45;;;32.70;31.10;;;;;;6153377;28;20051;-81
2022/07/08 15:10:23;;;;;;;6.32;0.57;;;32.50;31.40;;;;;;6155766;28;20055;-80
2022/07/08 15:13:26;;;;;;;4.65;0.60;;;32.30;31.10;;;;;;6155475;28;20057;-79
2022/07/08 15:16:27;;;;;;;2.38;0.57;;;31.60;31.70;;;;;;6152197;28;20051;-79
2022/07/08 15:19:29;;;;;;;4.10;0.65;;;31.50;32.10;;;;;;6155410;28;20059;-81
2022/07/08 15:22:32;;;;;;;2.67;0.47;;;31.60;32.40;;;;;;6156150;28;20051;-81
2022/07/08 15:25:34;;;;;;;4.03;0.50;;;31.90;32.00;;;;;;6155190;28;20047;-82
2022/07/08 15:28:36;;;;;;;2.63;0.98;;;32.10;31.60;;;;;;6159729;28;20054;-80
2022/07/08 15:31:38;;;;;;;4.18;1.33;;;32.30;31.50;;;;;;6155159;28;20086;-80
2022/07/08 15:34:39;;;;;;;3.55;0.60;;;32.30;31.80;;;;;;6151130;28;20051;-81
2022/07/08 15:37:42;;;;;;;3.13;0.82;;;32.20;31.20;;;;;;6152452;28;20047;-82
2022/07/08 15:40:44;;;;;;;1.25;0.40;;;31.90;31.90;;;;;;6154412;28;20055;-81
2022/07/08 15:43:46;;;;;;;3.25;0.52;;;31.70;31.70;;;;;;6152406;28;20062;-81
2022/07/08 15:46:48;;;;;;;3.58;0.50;;;31.50;32.20;;;;;;6156578;28;20051;-82
2022/07/08 15:49:49;;;;;;;3.58;0.45;;;31.40;32.10;;;;;;6154543;28;20051;-81
2022/07/08 15:52:52;;;;;;;4.90;0.82;;;31.20;32.00;;;;;;6154882;28;20417;-82
2022/07/08 15:55:54;;;;;;;1.08;0.20;;;30.80;32.70;;;;;;6155788;28;20047;-77
2022/07/08 15:58:56;;;;;;;5.03;0.60;;;30.90;32.40;;;;;;6153032;28;20460;-79
2022/07/08 16:01:58;;;;;;;3.90;0.60;;;31.00;32.40;;;;;;6152988;28;20048;-82
2022/07/08 16:04:59;;;;;;;2.65;0.47;;;31.10;32.20;;;;;;6153589;28;20053;-81